Flight Track Log - Related Links

Times and Time Zones

All times are in EDT time to prevent confusion due to time zone crossing. See the UAL5911 flight status page for this flight to view local times or setup timezone preferences in your user account.

Time Position Orientation Groundspeed Altitude Reporting Facility
EDT Latitude Longitude Course Direction KTS MPH feet Rate Location/Type
Sun 02:08:39 PM 41.9500 -87.8500 197° South 189 217 3,700  Level Chicago TRACON
Sun 02:09:34 PM 41.9167 -87.7833 124° Southeast 241 277 4,900 532 Climbing Chicago TRACON
Sun 02:10:00 PM 41.8278 -88.1211 206° Southwest  Level Estimated
Sun 02:11:00 PM 41.7764 -88.1923 203° Southwest  Level Estimated
Sun 02:11:17 PM 41.8153 -87.7433 164° South 240 276 5,100  Level Chicago Center
Sun 02:12:00 PM 41.7093 -88.1508 155° Southeast  Level FlightAware Approximate
Sun 02:12:19 PM 41.7508 -87.7633 193° South 239 275 7,700  Level Chicago Center
Sun 02:13:00 PM 41.6603 -88.2249 197° South  Level Estimated
Sun 02:13:21 PM 41.6981 -87.8217 220° Southwest 253 291 10,200  Level Chicago Center
Sun 02:14:22 PM 41.6422 -87.8839 220° Southwest 260 299 11,300 829 Climbing Chicago Center
Sun 02:15:24 PM 41.5475 -87.9450 206° Southwest 313 360 11,900 290 Climbing Chicago Center
Sun 02:16:26 PM 41.4631 -88.0014 207° Southwest 335 386 11,900  Level Chicago Center
Sun 02:17:28 PM 41.3850 -88.0822 218° Southwest 341 392 11,900 97 Level Chicago Center
Sun 02:18:30 PM 41.3175 -88.1761 226° Southwest 340 391 12,100 97 Climbing Chicago Center
Sun 02:19:32 PM 41.2756 -88.2889 244° Southwest 342 394 12,100  Level Chicago Center
Sun 02:20:34 PM 41.2292 -88.4003 241° Southwest 345 397 12,100 -293 Level Chicago Center
Sun 02:21:35 PM 41.1803 -88.5053 238° Southwest 337 388 11,500 -683 Descending Chicago Center
Sun 02:22:37 PM 41.1339 -88.6131 240° Southwest 338 389 10,700 -629 Descending Chicago Center
Sun 02:23:39 PM 41.0903 -88.7217 242° Southwest 337 388 10,200 -339 Descending Chicago Center
Sun 02:24:41 PM 41.0406 -88.8511 243° Southwest 332 382 10,000 -97 Descending Chicago Center
Sun 02:25:43 PM 40.9914 -88.9497 237° Southwest 328 377 10,000  Level Chicago Center
Sun 02:26:45 PM 40.9428 -89.0539 238° Southwest 331 381 10,000  Level Chicago Center
Sun 02:27:47 PM 40.8975 -89.1597 241° Southwest 331 381 10,000 -532 Level Chicago Center
Sun 02:28:49 PM 40.8653 -89.2528 245° Southwest 299 344 8,900 -1,355 Descending Chicago Center
Sun 02:29:51 PM 40.8372 -89.3361 246° West 270 311 7,200 -1,790 Descending Chicago Center
Sun 02:30:53 PM 40.8036 -89.4286 244° Southwest 238 274 5,200 -1,500 Descending Chicago Center
Sun 02:31:55 PM 40.7806 -89.4969 246° West 209 241 4,100 -1,008 Descending Chicago Center
Sun 02:32:58 PM 40.7597 -89.5625 247° West 195 224 3,100 -952 Descending Chicago Center

Login

Don't have an account? Register now (free) for customized features, flight alerts, and more!